createdAt,value
2019-06-08T00:02:23.061Z,4.50
2019-06-08T00:04:54.657Z,5.03
2019-06-08T00:07:26.311Z,4.50
2019-06-08T00:09:57.830Z,5.57
2019-06-08T00:12:29.543Z,4.23
2019-06-08T00:15:00.992Z,5.17
2019-06-08T00:17:38.599Z,4.37
2019-06-08T00:20:05.977Z,1.63
2019-06-08T00:22:37.346Z,6.00
2019-06-08T00:25:11.580Z,3.83
2019-06-08T00:27:42.996Z,5.53
2019-06-08T00:30:14.774Z,3.13
2019-06-08T00:32:46.490Z,4.90
2019-06-08T00:35:18.642Z,3.57
2019-06-08T00:37:49.996Z,2.80
2019-06-08T00:40:23.115Z,2.97
2019-06-08T00:42:54.490Z,5.23
2019-06-08T00:45:25.883Z,4.80
2019-06-08T00:47:57.355Z,3.77
2019-06-08T00:50:29.368Z,4.57
2019-06-08T00:53:00.807Z,4.80
2019-06-08T00:55:33.056Z,3.47
2019-06-08T00:58:04.434Z,6.07
2019-06-08T01:00:36.257Z,3.53
2019-06-08T01:03:07.507Z,2.47
2019-06-08T01:05:38.838Z,1.87
2019-06-08T01:08:10.534Z,1.60
2019-06-08T01:10:41.842Z,2.27
2019-06-08T01:13:14.334Z,1.93
2019-06-08T01:15:45.651Z,2.17
2019-06-08T01:18:16.983Z,2.17
2019-06-08T01:20:48.660Z,4.40
2019-06-08T01:23:21.517Z,2.70
2019-06-08T01:25:52.905Z,1.50
2019-06-08T01:28:26.061Z,2.90
2019-06-08T01:30:57.431Z,2.33
2019-06-08T01:33:28.898Z,2.80
2019-06-08T01:36:00.595Z,5.63
2019-06-08T01:38:31.865Z,3.77
2019-06-08T01:41:03.649Z,5.87
2019-06-08T01:43:35.374Z,2.20
2019-06-08T01:46:07.016Z,1.77
2019-06-08T01:48:38.418Z,2.37
2019-06-08T01:51:09.886Z,4.50
2019-06-08T01:53:41.165Z,3.23
2019-06-08T01:56:13.110Z,3.03
2019-06-08T01:58:44.706Z,4.03
2019-06-08T02:01:16.697Z,1.77
2019-06-08T02:03:48.333Z,3.27
2019-06-08T02:06:19.662Z,1.30
2019-06-08T02:08:51.031Z,1.53
2019-06-08T02:11:22.388Z,3.67
2019-06-08T02:13:53.870Z,3.67
2019-06-08T02:16:25.640Z,2.67
2019-06-08T02:18:57.236Z,2.77
2019-06-08T02:21:28.891Z,1.60
2019-06-08T02:24:00.869Z,2.87
2019-06-08T02:26:34.631Z,1.23
2019-06-08T02:29:05.679Z,3.43
2019-06-08T02:31:37.789Z,4.63
2019-06-08T02:34:09.468Z,2.23
2019-06-08T02:36:40.992Z,2.13
2019-06-08T02:39:12.601Z,1.23
2019-06-08T02:41:44.001Z,2.13
2019-06-08T02:44:15.472Z,2.87
2019-06-08T02:46:47.375Z,3.33
2019-06-08T02:49:18.751Z,2.87
2019-06-08T02:51:51.041Z,2.23
2019-06-08T02:54:23.339Z,1.87
2019-06-08T02:56:56.246Z,2.57
2019-06-08T02:59:31.331Z,5.67
2019-06-08T03:02:04.061Z,3.33
2019-06-08T03:04:38.986Z,2.27
2019-06-08T03:07:13.588Z,3.43
2019-06-08T03:09:47.512Z,3.67
2019-06-08T03:12:20.730Z,2.80
2019-06-08T03:14:54.249Z,3.90
2019-06-08T03:17:25.566Z,2.33
2019-06-08T03:19:57.068Z,3.93
2019-06-08T03:22:28.637Z,3.57
2019-06-08T03:25:01.023Z,3.43
2019-06-08T03:27:33.097Z,2.77
2019-06-08T03:30:15.989Z,5.47
2019-06-08T03:32:47.135Z,2.70
2019-06-08T03:35:12.732Z,3.93
2019-06-08T03:37:44.540Z,2.03
2019-06-08T03:40:17.449Z,4.13
2019-06-08T03:42:49.395Z,2.83
2019-06-08T03:45:22.136Z,3.30
2019-06-08T03:47:53.480Z,4.47
2019-06-08T03:50:24.853Z,2.07
2019-06-08T03:52:56.459Z,1.80
2019-06-08T03:55:27.882Z,2.53
2019-06-08T03:57:59.238Z,2.90
2019-06-08T04:00:30.643Z,5.27
2019-06-08T04:03:01.942Z,3.87
2019-06-08T04:05:33.440Z,2.80
2019-06-08T04:08:05.078Z,7.90
2019-06-08T04:10:37.576Z,2.70
2019-06-08T04:13:11.537Z,2.90
2019-06-08T04:15:44.629Z,4.10
2019-06-08T04:18:15.767Z,4.00
2019-06-08T04:20:48.851Z,5.23
2019-06-08T04:23:20.509Z,4.00
2019-06-08T04:25:51.967Z,4.60
2019-06-08T04:28:23.327Z,2.53
2019-06-08T04:30:55.056Z,4.60
2019-06-08T04:33:26.493Z,2.93
2019-06-08T04:35:58.349Z,4.60
2019-06-08T04:38:30.237Z,3.60
2019-06-08T04:41:01.716Z,5.30
2019-06-08T04:43:34.049Z,5.13
2019-06-08T04:46:05.679Z,3.37
2019-06-08T04:48:38.637Z,3.77
2019-06-08T04:51:10.534Z,4.67
2019-06-08T04:53:43.203Z,4.47
2019-06-08T04:56:15.737Z,4.10
2019-06-08T04:58:48.972Z,3.37
2019-06-08T05:01:21.526Z,2.40
2019-06-08T05:03:53.108Z,3.63
2019-06-08T05:06:24.717Z,3.40
2019-06-08T05:08:56.056Z,2.73
2019-06-08T05:11:27.822Z,2.50
2019-06-08T05:13:59.736Z,4.33
2019-06-08T05:16:31.103Z,2.30
2019-06-08T05:19:02.476Z,4.70
2019-06-08T05:21:33.766Z,3.10
2019-06-08T05:24:05.264Z,5.17
2019-06-08T05:26:37.022Z,4.10
2019-06-08T05:29:08.848Z,4.17
2019-06-08T05:31:41.519Z,4.00
2019-06-08T05:34:12.973Z,4.47
2019-06-08T05:36:45.433Z,3.33
2019-06-08T05:39:16.947Z,4.97
2019-06-08T05:41:49.764Z,5.27
2019-06-08T05:44:22.501Z,3.90
2019-06-08T05:46:53.879Z,3.87
2019-06-08T05:49:25.609Z,3.67
2019-06-08T05:51:57.061Z,3.40
2019-06-08T05:54:28.683Z,6.93
2019-06-08T05:57:00.028Z,3.63
2019-06-08T05:59:31.459Z,3.17
2019-06-08T06:02:03.935Z,4.00
2019-06-08T06:04:35.383Z,4.73
2019-06-08T06:07:07.313Z,4.43
2019-06-08T06:09:39.091Z,4.80
2019-06-08T06:12:10.527Z,3.87
2019-06-08T06:14:42.796Z,6.03
2019-06-08T06:17:14.510Z,4.67
2019-06-08T06:19:47.219Z,4.97
2019-06-08T06:22:20.220Z,7.03
2019-06-08T06:24:51.949Z,5.67
2019-06-08T06:27:24.669Z,4.93
2019-06-08T06:29:56.230Z,6.13
2019-06-08T06:32:27.606Z,6.40
2019-06-08T06:35:00.334Z,5.13
2019-06-08T06:37:32.021Z,7.20
2019-06-08T06:40:03.853Z,7.27
2019-06-08T06:42:35.402Z,5.93
2019-06-08T06:45:07.037Z,4.90
2019-06-08T06:47:39.576Z,9.60
2019-06-08T06:50:11.287Z,3.77
2019-06-08T06:52:44.604Z,5.10
2019-06-08T06:55:17.310Z,5.77
2019-06-08T06:57:49.276Z,4.33
2019-06-08T07:00:32.327Z,6.83
2019-06-08T07:03:03.839Z,4.87
2019-06-08T07:05:35.661Z,4.63
2019-06-08T07:08:07.212Z,7.00
2019-06-08T07:10:39.106Z,4.67
2019-06-08T07:13:10.474Z,3.50
2019-06-08T07:15:42.128Z,2.87
2019-06-08T07:18:14.855Z,5.67
2019-06-08T07:20:46.590Z,5.63
2019-06-08T07:23:17.902Z,3.67
2019-06-08T07:25:50.334Z,5.37
2019-06-08T07:28:23.010Z,6.30
2019-06-08T07:30:54.865Z,6.03
2019-06-08T07:33:26.517Z,3.77
2019-06-08T07:35:59.822Z,8.47
2019-06-08T07:38:31.594Z,3.17
2019-06-08T07:41:03.159Z,7.07
2019-06-08T07:43:34.580Z,3.20
2019-06-08T07:46:06.109Z,3.47
2019-06-08T07:48:38.637Z,5.13
2019-06-08T07:51:10.227Z,6.97
2019-06-08T07:53:41.905Z,5.47
2019-06-08T07:56:13.230Z,8.50
2019-06-08T07:58:44.803Z,17.17
2019-06-08T08:01:16.180Z,5.07
2019-06-08T08:03:48.012Z,8.93
2019-06-08T08:06:19.517Z,20.00
2019-06-08T08:08:50.858Z,5.73
2019-06-08T08:11:22.522Z,3.40
2019-06-08T08:13:54.837Z,4.93
2019-06-08T08:16:26.598Z,4.53
2019-06-08T08:18:59.578Z,5.53
2019-06-08T08:21:32.038Z,4.30
2019-06-08T08:24:03.834Z,3.73
2019-06-08T08:26:35.227Z,9.33
2019-06-08T08:29:08.501Z,5.70
2019-06-08T08:31:40.365Z,7.00
2019-06-08T08:34:11.902Z,9.13
2019-06-08T08:36:43.291Z,4.67
2019-06-08T08:39:17.475Z,7.17
2019-06-08T08:41:49.968Z,5.20
2019-06-08T08:44:21.412Z,3.17
2019-06-08T08:46:54.412Z,9.00
2019-06-08T08:49:28.101Z,8.57
2019-06-08T08:52:01.850Z,14.23
2019-06-08T08:54:34.782Z,4.97
2019-06-08T08:57:08.407Z,5.87
2019-06-08T08:59:39.474Z,4.77
2019-06-08T09:02:11.486Z,5.60
2019-06-08T09:04:43.149Z,2.70
2019-06-08T09:07:14.645Z,7.03
2019-06-08T09:09:48.071Z,9.10
2019-06-08T09:12:19.100Z,7.23
2019-06-08T09:14:51.871Z,3.27
2019-06-08T09:17:24.208Z,3.23
2019-06-08T09:19:58.420Z,3.93
2019-06-08T09:22:31.165Z,5.30
2019-06-08T09:25:04.335Z,3.63
2019-06-08T09:27:34.838Z,5.60
2019-06-08T09:30:08.362Z,4.93
2019-06-08T09:32:39.935Z,7.03
2019-06-08T09:35:11.680Z,4.03
2019-06-08T09:37:43.401Z,5.07
2019-06-08T09:40:15.349Z,6.60
2019-06-08T09:42:51.449Z,4.27
2019-06-08T09:45:22.344Z,3.23
2019-06-08T09:47:55.317Z,6.93
2019-06-08T09:50:27.786Z,4.20
2019-06-08T09:53:18.228Z,5.17
2019-06-08T09:55:33.049Z,5.53
2019-06-08T09:58:11.041Z,6.47
2019-06-08T10:00:38.600Z,4.83
2019-06-08T10:03:10.840Z,7.27
2019-06-08T10:05:42.468Z,4.67
2019-06-08T10:08:13.984Z,3.90
2019-06-08T10:10:48.241Z,5.23
2019-06-08T10:13:19.134Z,5.17
2019-06-08T10:15:51.564Z,4.53
2019-06-08T10:18:23.418Z,4.17
2019-06-08T10:20:59.611Z,6.33
2019-06-08T10:23:34.182Z,9.50
2019-06-08T10:26:03.636Z,6.17
2019-06-08T10:28:38.831Z,5.17
2019-06-08T10:31:09.211Z,8.03
2019-06-08T10:33:40.986Z,6.40
2019-06-08T10:36:13.848Z,8.50
2019-06-08T10:38:47.805Z,9.20
2019-06-08T10:41:21.669Z,5.80
2019-06-08T10:43:51.472Z,7.93
2019-06-08T10:46:23.146Z,8.90
2019-06-08T10:48:54.641Z,9.17
2019-06-08T10:51:26.536Z,6.83
2019-06-08T10:53:57.988Z,6.87
2019-06-08T10:56:31.145Z,6.97
2019-06-08T10:59:04.872Z,8.17
2019-06-08T11:01:38.483Z,7.87
2019-06-08T11:04:09.492Z,6.07
2019-06-08T11:06:41.521Z,7.80
2019-06-08T11:09:15.192Z,6.07
2019-06-08T11:11:48.080Z,11.60
2019-06-08T11:14:22.521Z,5.97
2019-06-08T11:16:52.580Z,6.33
2019-06-08T11:19:26.457Z,6.20
2019-06-08T11:22:00.450Z,4.97
2019-06-08T11:24:30.185Z,10.07
2019-06-08T11:27:01.656Z,11.93
2019-06-08T11:29:34.486Z,9.33
2019-06-08T11:32:09.289Z,8.63
2019-06-08T11:34:39.180Z,5.63
2019-06-08T11:37:13.062Z,9.40
2019-06-08T11:39:44.280Z,8.93
2019-06-08T11:42:16.049Z,7.93
2019-06-08T11:44:47.948Z,7.63
2019-06-08T11:47:20.274Z,8.77
2019-06-08T11:49:51.961Z,7.97
2019-06-08T11:52:25.765Z,8.50
2019-06-08T11:54:57.369Z,9.67
2019-06-08T11:57:30.263Z,10.37
2019-06-08T12:00:09.225Z,8.27
2019-06-08T12:02:35.546Z,15.80
2019-06-08T12:05:10.523Z,9.87
2019-06-08T12:07:41.501Z,5.37
2019-06-08T12:10:14.155Z,4.70
2019-06-08T12:12:46.484Z,9.27
2019-06-08T12:15:21.203Z,4.47
2019-06-08T12:17:52.230Z,6.87
2019-06-08T12:20:24.505Z,9.03
2019-06-08T12:22:56.154Z,7.30
2019-06-08T12:25:27.829Z,4.53
2019-06-08T12:27:59.381Z,6.17
2019-06-08T12:30:30.833Z,6.93
2019-06-08T12:33:02.255Z,9.33
2019-06-08T12:35:33.606Z,7.33
2019-06-08T12:38:06.249Z,11.27
2019-06-08T12:40:41.083Z,9.03
2019-06-08T12:43:13.234Z,12.63
2019-06-08T12:45:45.324Z,10.03
2019-06-08T12:48:22.502Z,14.73
2019-06-08T12:50:50.640Z,26.17
2019-06-08T12:53:23.168Z,12.60
2019-06-08T12:55:54.676Z,20.93
2019-06-08T12:58:27.601Z,20.67
2019-06-08T13:00:59.163Z,16.23
2019-06-08T13:03:30.595Z,9.33
2019-06-08T13:06:01.999Z,15.17
2019-06-08T13:08:33.632Z,10.10
2019-06-08T13:11:07.741Z,19.97
2019-06-08T13:13:38.585Z,9.37
2019-06-08T13:16:10.490Z,9.57
2019-06-08T13:18:42.067Z,15.53
2019-06-08T13:21:25.424Z,14.67
2019-06-08T13:23:48.050Z,12.63
2019-06-08T13:26:24.830Z,12.17
2019-06-08T13:28:52.583Z,14.73
2019-06-08T13:31:25.444Z,12.80
2019-06-08T13:33:58.639Z,15.57
2019-06-08T13:36:30.246Z,20.67
2019-06-08T13:39:01.923Z,33.70
2019-06-08T13:41:34.938Z,30.70
2019-06-08T13:44:08.420Z,52.43
2019-06-08T13:46:40.476Z,19.43
2019-06-08T13:49:12.429Z,13.80
2019-06-08T13:51:44.061Z,25.70
2019-06-08T13:54:15.693Z,24.00
2019-06-08T13:56:47.894Z,20.03
2019-06-08T13:59:24.945Z,18.27
2019-06-08T14:01:53.614Z,24.43
2019-06-08T14:04:25.299Z,24.40
2019-06-08T14:06:58.107Z,12.10
2019-06-08T14:12:04.397Z,16.03
2019-06-08T14:13:14.965Z,9.80
2019-06-08T14:14:39.700Z,14.63
2019-06-08T14:17:09.147Z,20.20
2019-06-08T14:19:40.489Z,18.53
2019-06-08T14:22:13.048Z,15.47
2019-06-08T14:24:44.417Z,18.03
2019-06-08T14:27:17.111Z,18.43
2019-06-08T14:29:51.384Z,12.63
2019-06-08T14:32:22.539Z,13.20
2019-06-08T14:34:54.334Z,15.20
2019-06-08T14:37:29.114Z,7.83
2019-06-08T14:39:59.303Z,13.20
2019-06-08T14:42:31.812Z,19.83
2019-06-08T14:45:04.925Z,14.40
2019-06-08T14:47:37.626Z,17.23
2019-06-08T14:50:09.322Z,23.27
2019-06-08T14:52:42.882Z,24.37
2019-06-08T14:55:14.934Z,18.57
2019-06-08T14:57:48.163Z,28.77
2019-06-08T15:00:23.051Z,29.23
2019-06-08T15:02:58.644Z,15.87
2019-06-08T15:05:32.072Z,13.40
2019-06-08T15:08:02.344Z,12.97
2019-06-08T15:10:34.202Z,15.67
2019-06-08T15:13:07.750Z,21.07
2019-06-08T15:15:39.015Z,14.13
2019-06-08T15:18:11.093Z,5.53
2019-06-08T15:20:42.768Z,10.53
2019-06-08T15:23:16.903Z,10.87
2019-06-08T15:25:47.204Z,5.40
2019-06-08T15:28:18.903Z,6.37
2019-06-08T15:30:50.420Z,5.40
2019-06-08T15:33:24.174Z,8.33
2019-06-08T15:35:57.638Z,3.53
2019-06-08T15:38:31.540Z,11.77
2019-06-08T15:41:02.711Z,12.37
2019-06-08T15:43:36.989Z,17.70
2019-06-08T15:46:08.470Z,17.23
2019-06-08T15:48:40.158Z,9.10
2019-06-08T15:51:11.894Z,15.60
2019-06-08T15:53:43.677Z,7.10
2019-06-08T15:56:15.064Z,9.50
2019-06-08T15:58:48.690Z,9.23
2019-06-08T16:01:20.211Z,5.87
2019-06-08T16:03:51.998Z,11.43
2019-06-08T16:06:23.761Z,10.43
2019-06-08T16:08:55.268Z,18.17
2019-06-08T16:11:26.672Z,8.67
2019-06-08T16:13:58.103Z,8.33
2019-06-08T16:16:31.138Z,10.13
2019-06-08T16:19:02.647Z,6.33
2019-06-08T16:21:35.976Z,5.40
2019-06-08T16:24:08.103Z,6.33
2019-06-08T16:26:52.248Z,9.10
2019-06-08T16:29:12.518Z,5.30
2019-06-08T16:31:44.040Z,5.63
2019-06-08T16:34:15.504Z,9.23
2019-06-08T16:36:47.002Z,8.77
2019-06-08T16:39:18.494Z,6.90
2019-06-08T16:41:50.142Z,7.50
2019-06-08T16:44:21.882Z,9.30
2019-06-08T16:46:56.203Z,7.63
2019-06-08T16:49:27.603Z,6.33
2019-06-08T16:51:58.996Z,9.20
2019-06-08T16:54:30.628Z,9.37
2019-06-08T16:57:10.197Z,6.07
2019-06-08T16:59:36.654Z,7.70
2019-06-08T17:02:08.996Z,5.97
2019-06-08T17:04:40.406Z,6.60
2019-06-08T17:07:12.089Z,5.17
2019-06-08T17:09:44.099Z,4.30
2019-06-08T17:12:15.657Z,8.63
2019-06-08T17:14:47.095Z,8.03
2019-06-08T17:17:18.926Z,6.47
2019-06-08T17:19:50.417Z,7.90
2019-06-08T17:22:21.946Z,6.07
2019-06-08T17:24:53.900Z,7.30
2019-06-08T17:27:27.228Z,7.33
2019-06-08T17:29:58.896Z,5.70
2019-06-08T17:32:31.346Z,8.37
2019-06-08T17:35:02.772Z,7.00
2019-06-08T17:37:35.954Z,6.07
2019-06-08T17:40:08.069Z,6.70
2019-06-08T17:42:39.651Z,7.87
2019-06-08T17:45:11.394Z,8.13
2019-06-08T17:47:43.217Z,7.60
2019-06-08T17:50:14.858Z,5.30
2019-06-08T17:52:46.385Z,3.83
2019-06-08T17:55:18.079Z,5.00
2019-06-08T17:57:53.565Z,7.40
2019-06-08T18:00:24.518Z,12.57
2019-06-08T18:03:00.234Z,8.43
2019-06-08T18:05:29.446Z,6.40
2019-06-08T18:08:01.131Z,5.50
2019-06-08T18:10:33.775Z,4.73
2019-06-08T18:13:07.283Z,5.07
2019-06-08T18:15:39.944Z,5.03
2019-06-08T18:18:12.347Z,6.80
2019-06-08T18:20:44.984Z,4.70
2019-06-08T18:23:17.343Z,3.43
2019-06-08T18:25:49.684Z,6.80
2019-06-08T18:28:22.339Z,6.43
2019-06-08T18:30:53.870Z,6.70
2019-06-08T18:33:27.004Z,7.03
2019-06-08T18:36:01.003Z,6.33
2019-06-08T18:38:32.857Z,8.80
2019-06-08T18:41:08.229Z,6.10
2019-06-08T18:43:42.354Z,6.37
2019-06-08T18:46:13.451Z,8.07
2019-06-08T18:48:49.255Z,6.83
2019-06-08T18:51:19.323Z,5.17
2019-06-08T18:54:07.183Z,7.27
2019-06-08T18:56:24.063Z,4.17
2019-06-08T18:58:58.159Z,7.07
2019-06-08T19:01:28.559Z,9.23
2019-06-08T19:04:00.969Z,6.33
2019-06-08T19:06:32.948Z,9.37
2019-06-08T19:09:07.554Z,6.67
2019-06-08T19:11:42.211Z,4.37
2019-06-08T19:14:14.150Z,7.83
2019-06-08T19:16:49.865Z,6.97
2019-06-08T19:19:18.920Z,4.60
2019-06-08T19:21:50.967Z,4.87
2019-06-08T19:24:22.661Z,6.50
2019-06-08T19:26:54.317Z,9.60
2019-06-08T19:29:27.911Z,6.70
2019-06-08T19:32:02.271Z,7.77
2019-06-08T19:34:33.729Z,7.43
2019-06-08T19:37:07.814Z,4.67
2019-06-08T19:39:45.959Z,6.73
2019-06-08T19:42:17.633Z,6.13
2019-06-08T19:45:01.164Z,5.80
2019-06-08T19:47:27.645Z,4.63
2019-06-08T19:49:59.711Z,4.27
2019-06-08T19:52:41.527Z,5.90
2019-06-08T19:55:11.179Z,7.30
2019-06-08T19:57:43.354Z,8.87
2019-06-08T20:00:15.237Z,4.43
2019-06-08T20:02:47.797Z,7.40
2019-06-08T20:05:20.314Z,5.57
2019-06-08T20:07:53.369Z,4.17
2019-06-08T20:10:27.727Z,4.70
2019-06-08T20:12:58.720Z,8.57
2019-06-08T20:15:30.473Z,5.00
2019-06-08T20:18:01.962Z,4.67
2019-06-08T20:20:34.992Z,5.27
2019-06-08T20:23:09.540Z,4.63
2019-06-08T20:25:41.094Z,6.87
2019-06-08T20:28:12.522Z,4.13
2019-06-08T20:30:44.611Z,9.70
2019-06-08T20:33:16.450Z,3.80
2019-06-08T20:35:50.425Z,6.70
2019-06-08T20:38:34.071Z,4.90
2019-06-08T20:40:54.453Z,7.27
2019-06-08T20:43:25.956Z,7.10
2019-06-08T20:45:57.613Z,5.03
2019-06-08T20:48:28.929Z,4.87
2019-06-08T20:51:00.263Z,5.43
2019-06-08T20:53:32.360Z,6.90
2019-06-08T20:56:03.948Z,8.83
2019-06-08T20:58:37.139Z,5.77
2019-06-08T21:01:09.125Z,7.43
2019-06-08T21:03:40.387Z,4.93
2019-06-08T21:06:11.874Z,5.67
2019-06-08T21:08:44.031Z,6.13
2019-06-08T21:11:17.629Z,7.17
2019-06-08T21:13:51.207Z,5.30
2019-06-08T21:16:22.144Z,4.13
2019-06-08T21:18:53.609Z,6.53
2019-06-08T21:21:28.120Z,5.20
2019-06-08T21:24:00.993Z,7.57
2019-06-08T21:26:32.356Z,4.97
2019-06-08T21:29:04.166Z,9.73
2019-06-08T21:31:41.170Z,6.07
2019-06-08T21:34:13.315Z,8.47
2019-06-08T21:36:44.767Z,6.10
2019-06-08T21:39:17.342Z,8.10
2019-06-08T21:41:51.511Z,6.47
2019-06-08T21:44:22.304Z,4.23
2019-06-08T21:46:55.219Z,6.20
2019-06-08T21:49:27.819Z,11.57
2019-06-08T21:52:01.210Z,5.23
2019-06-08T21:54:32.787Z,6.10
2019-06-08T21:57:08.985Z,4.77
2019-06-08T21:59:38.059Z,7.67
2019-06-08T22:02:09.524Z,8.77
2019-06-08T22:04:40.923Z,8.40
2019-06-08T22:07:12.401Z,8.47
2019-06-08T22:09:43.808Z,9.63
2019-06-08T22:12:17.312Z,4.97
2019-06-08T22:14:48.368Z,5.57
2019-06-08T22:17:19.847Z,4.57
2019-06-08T22:19:51.959Z,8.60
2019-06-08T22:22:24.245Z,4.60
2019-06-08T22:24:58.319Z,7.40
2019-06-08T22:27:28.893Z,10.13
2019-06-08T22:30:01.295Z,5.63
2019-06-08T22:32:33.934Z,11.10
2019-06-08T22:35:07.803Z,6.87
2019-06-08T22:37:38.414Z,7.93
2019-06-08T22:40:11.253Z,7.03
2019-06-08T22:42:42.644Z,7.93
2019-06-08T22:45:14.133Z,9.17
2019-06-08T22:47:47.749Z,7.77
2019-06-08T22:50:19.272Z,9.70
2019-06-08T22:52:50.717Z,9.17
2019-06-08T22:55:22.075Z,8.63
2019-06-08T22:57:55.146Z,9.33
2019-06-08T23:00:27.936Z,9.57
2019-06-08T23:03:02.750Z,7.30
2019-06-08T23:05:32.914Z,8.63
2019-06-08T23:08:06.325Z,8.37
2019-06-08T23:10:38.637Z,11.03
2019-06-08T23:13:10.199Z,9.77
2019-06-08T23:15:41.941Z,7.13
2019-06-08T23:18:13.365Z,10.10
2019-06-08T23:20:44.727Z,9.60
2019-06-08T23:23:17.895Z,11.67
2019-06-08T23:25:49.003Z,10.13
2019-06-08T23:28:20.350Z,6.70
2019-06-08T23:31:03.700Z,13.37
2019-06-08T23:33:27.779Z,6.33
2019-06-08T23:36:34.250Z,6.50
2019-06-08T23:38:32.561Z,7.37
2019-06-08T23:41:04.010Z,7.40
2019-06-08T23:43:35.664Z,7.90
2019-06-08T23:46:08.141Z,10.20
2019-06-08T23:48:39.847Z,10.40
2019-06-08T23:51:11.514Z,7.73
2019-06-08T23:53:42.854Z,11.97
2019-06-08T23:56:14.526Z,10.43
2019-06-08T23:58:47.996Z,10.53
